Time;durP1;ratioP1;P1;durP2;ratioP2;P2;SDS_P1;SDS_P2;PMS_P1;PMS_P2;Temp;Humidity;BMP_temperature;BMP_pressure;BME280_temperature;BME280_humidity;BME280_pressure;Samples;Min_cycle;Max_cycle;Signal;HPM_P1;HPM_P2
2023/05/05 00:02:24;;;;;;;8.93;5.60;;;;;;;10.92;64.04;101021.94;5028240;28;20386;-71
2023/05/05 00:04:51;;;;;;;6.60;4.97;;;;;;;10.89;64.35;101018.59;5023298;28;20204;-71
2023/05/05 00:07:18;;;;;;;8.20;5.47;;;;;;;10.86;64.67;101016.97;5020305;28;20270;-71
2023/05/05 00:09:44;;;;;;;6.17;5.57;;;;;;;10.84;64.74;101015.34;5021854;28;20225;-71
2023/05/05 00:12:11;;;;;;;7.30;5.77;;;;;;;10.81;64.84;101019.03;5023541;28;20220;-71
2023/05/05 00:14:37;;;;;;;6.00;5.40;;;;;;;10.75;64.37;101009.56;5027821;28;20212;-71
2023/05/05 00:17:04;;;;;;;7.90;5.20;;;;;;;10.65;63.89;101019.06;5027442;28;20247;-72
2023/05/05 00:19:32;;;;;;;6.97;5.10;;;;;;;10.56;64.44;101016.09;5025863;28;20203;-71
2023/05/05 00:21:58;;;;;;;5.70;5.00;;;;;;;10.50;64.87;101008.44;5019746;28;20219;-72
2023/05/05 00:24:25;;;;;;;6.47;5.23;;;;;;;10.48;65.16;101010.31;5027537;28;20200;-72
2023/05/05 00:26:51;;;;;;;5.80;4.87;;;;;;;10.44;65.49;101013.16;5022762;28;20281;-72
2023/05/05 00:29:17;;;;;;;5.40;4.90;;;;;;;10.39;65.32;101006.41;5025701;28;20226;-72
2023/05/05 00:31:44;;;;;;;5.37;4.80;;;;;;;10.34;65.35;101005.78;5029870;28;20200;-71
2023/05/05 00:34:10;;;;;;;5.20;4.37;;;;;;;10.29;65.73;101006.03;5026418;28;20203;-72
2023/05/05 00:36:38;;;;;;;5.57;4.83;;;;;;;10.25;66.03;101003.63;5024876;28;20611;-72
2023/05/05 00:39:05;;;;;;;5.30;4.80;;;;;;;10.21;65.80;100997.63;5029360;28;20325;-72
2023/05/05 00:41:31;;;;;;;5.73;4.87;;;;;;;10.18;65.98;100995.13;5026811;28;20230;-72
2023/05/05 00:43:58;;;;;;;7.53;5.50;;;;;;;10.12;65.85;100987.47;5028628;28;20611;-72
2023/05/05 00:46:27;;;;;;;6.00;5.10;;;;;;;10.08;66.00;100992.09;5024574;28;20389;-72
2023/05/05 00:48:54;;;;;;;6.63;5.30;;;;;;;10.04;66.59;100984.38;5025294;28;20224;-72
2023/05/05 00:51:22;;;;;;;5.73;4.90;;;;;;;10.00;67.03;100988.16;5023178;28;20209;-71
2023/05/05 00:53:50;;;;;;;6.30;5.33;;;;;;;9.99;66.77;100986.44;5026480;28;20214;-72
2023/05/05 00:56:18;;;;;;;8.20;5.70;;;;;;;9.98;67.22;100979.41;5019976;28;20228;-71
2023/05/05 00:58:45;;;;;;;10.97;5.37;;;;;;;9.96;67.32;100981.28;5018435;28;20273;-72
2023/05/05 01:01:12;;;;;;;7.17;5.70;;;;;;;9.93;67.76;100977.00;5028630;28;20297;-71
2023/05/05 01:03:40;;;;;;;8.90;5.83;;;;;;;9.92;67.43;100977.94;5028909;28;20210;-72
2023/05/05 01:06:15;;;;;;;7.70;5.80;;;;;;;9.89;67.51;100983.41;5026664;28;20641;-72
2023/05/05 01:08:51;;;;;;;7.43;5.50;;;;;;;9.86;67.90;100974.75;5020462;28;20244;-71
2023/05/05 01:11:25;;;;;;;8.73;5.43;;;;;;;9.83;67.31;100966.97;5029374;28;20360;-72
2023/05/05 01:14:01;;;;;;;5.77;5.17;;;;;;;9.81;67.97;100968.84;5027448;28;20210;-71
2023/05/05 01:16:30;;;;;;;9.77;5.67;;;;;;;9.79;67.32;100970.72;5029250;28;20747;-71
2023/05/05 01:19:04;;;;;;;7.33;4.90;;;;;;;9.78;67.93;100969.00;5027084;28;20755;-72
2023/05/05 01:21:35;;;;;;;6.00;5.00;;;;;;;9.74;67.53;100969.16;5026241;28;20222;-72
2023/05/05 01:24:40;;;;;;;8.30;5.20;;;;;;;9.73;67.52;100958.59;5029865;28;20214;-72
2023/05/05 01:27:27;;;;;;;11.77;5.70;;;;;;;9.71;67.54;100968.47;5021822;28;20233;-72
2023/05/05 01:30:04;;;;;;;6.47;5.57;;;;;;;9.69;68.24;100967.69;5024314;28;20269;-72
2023/05/05 01:32:38;;;;;;;6.93;5.57;;;;;;;9.66;68.21;100967.88;5027584;28;20198;-72
2023/05/05 01:35:12;;;;;;;7.40;5.40;;;;;;;9.64;68.06;100956.47;5017676;28;20210;-72
2023/05/05 01:37:50;;;;;;;10.10;6.17;;;;;;;9.61;68.39;100957.50;5023720;28;20671;-72
2023/05/05 01:40:22;;;;;;;7.03;5.40;;;;;;;9.60;68.54;100962.88;5026264;28;20209;-71
2023/05/05 01:42:50;;;;;;;8.10;5.90;;;;;;;9.57;68.42;100958.59;5026643;28;20229;-71
2023/05/05 01:45:20;;;;;;;7.27;5.40;;;;;;;9.55;68.77;100960.47;5027197;28;20209;-71
2023/05/05 01:47:48;;;;;;;7.13;5.60;;;;;;;9.51;68.90;100958.91;5024717;28;20212;-72
2023/05/05 01:50:17;;;;;;;8.23;5.43;;;;;;;9.50;69.15;100959.84;5028356;28;20233;-72
2023/05/05 01:52:46;;;;;;;9.27;6.20;;;;;;;9.49;68.53;100958.16;5024074;28;20701;-72
2023/05/05 01:55:15;;;;;;;6.93;5.40;;;;;;;9.48;68.84;100959.09;5020236;28;20209;-72
2023/05/05 01:57:42;;;;;;;7.40;5.50;;;;;;;9.46;68.86;100960.13;5023836;28;20204;-72
2023/05/05 02:00:11;;;;;;;8.33;5.93;;;;;;;9.43;69.00;100955.81;5022990;28;20849;-71
2023/05/05 02:02:40;;;;;;;5.50;4.97;;;;;;;9.42;69.19;100958.56;5018993;28;20467;-72
2023/05/05 02:05:09;;;;;;;7.00;5.07;;;;;;;9.39;69.58;100954.25;5021572;28;20671;-72
2023/05/05 02:07:36;;;;;;;8.47;6.17;;;;;;;9.38;69.09;100955.19;5024077;28;20591;-72
2023/05/05 02:10:04;;;;;;;8.27;5.67;;;;;;;9.36;70.06;100951.75;5020669;28;20227;-72
2023/05/05 02:12:32;;;;;;;6.73;5.50;;;;;;;9.33;69.98;100949.25;5027930;28;20234;-72
2023/05/05 02:15:01;;;;;;;8.33;5.50;;;;;;;9.29;69.26;100950.41;5024700;28;20210;-72
2023/05/05 02:17:29;;;;;;;6.57;5.90;;;;;;;9.25;69.91;100947.03;5019279;28;20572;-72
2023/05/05 02:19:58;;;;;;;6.10;5.47;;;;;;;9.23;69.48;100945.41;5024630;28;20206;-71
2023/05/05 02:22:26;;;;;;;5.80;5.10;;;;;;;9.19;69.71;100942.03;5027510;28;20234;-72
2023/05/05 02:24:53;;;;;;;7.93;6.13;;;;;;;9.16;70.05;100947.50;5025200;28;20210;-72
2023/05/05 02:27:22;;;;;;;7.20;5.77;;;;;;;9.12;69.98;100937.16;5026690;28;20249;-72
2023/05/05 02:29:53;;;;;;;7.60;5.80;;;;;;;9.07;70.12;100940.03;5023377;28;20233;-72
2023/05/05 02:32:25;;;;;;;8.77;6.27;;;;;;;9.02;70.75;100934.94;5031804;28;20209;-71
2023/05/05 02:34:53;;;;;;;10.47;6.17;;;;;;;9.00;71.36;100942.13;5034166;28;20202;-72
2023/05/05 02:37:22;;;;;;;9.57;6.30;;;;;;;8.98;70.89;100938.69;5034404;28;20229;-72
2023/05/05 02:39:57;;;;;;;7.47;5.83;;;;;;;8.98;71.73;100943.16;5032273;28;20194;-71
2023/05/05 02:42:27;;;;;;;6.10;5.50;;;;;;;8.95;71.61;100943.34;5039618;28;20201;-72
2023/05/05 02:44:57;;;;;;;9.77;6.17;;;;;;;8.95;71.44;100943.34;5032871;28;20229;-72
2023/05/05 02:47:28;;;;;;;10.23;5.77;;;;;;;8.94;71.52;100931.84;5018279;28;20315;-71
2023/05/05 02:49:54;;;;;;;7.23;5.77;;;;;;;8.92;72.24;100930.22;5039333;28;20282;-71
2023/05/05 02:52:21;;;;;;;6.33;5.67;;;;;;;8.87;71.10;100932.25;5033422;28;20694;-71
2023/05/05 02:54:47;;;;;;;8.90;6.20;;;;;;;8.81;72.04;100936.06;5036496;28;20212;-72
2023/05/05 02:57:19;;;;;;;7.13;5.50;;;;;;;8.75;71.67;100931.09;5032461;28;20234;-72
2023/05/05 02:59:52;;;;;;;8.70;5.87;;;;;;;8.72;71.64;100922.41;5033333;28;20570;-72
2023/05/05 03:02:26;;;;;;;11.00;6.37;;;;;;;8.70;72.75;100927.78;5023943;28;20713;-72
2023/05/05 03:05:00;;;;;;;9.70;5.87;;;;;;;8.69;72.74;100923.41;5027916;28;20237;-71
2023/05/05 03:07:34;;;;;;;8.07;6.30;;;;;;;8.68;72.58;100924.34;5028863;28;20280;-72
2023/05/05 03:10:07;;;;;;;8.10;5.87;;;;;;;8.67;73.11;100931.47;5029497;28;20527;-71
2023/05/05 03:12:39;;;;;;;7.67;6.60;;;;;;;8.66;73.53;100926.22;5029624;28;20206;-72
2023/05/05 03:15:09;;;;;;;8.27;5.93;;;;;;;8.63;73.75;100915.75;5022421;28;20204;-72
2023/05/05 03:17:37;;;;;;;8.03;5.90;;;;;;;8.61;73.09;100917.63;5035778;28;20292;-73
2023/05/05 03:20:05;;;;;;;7.03;5.83;;;;;;;8.57;73.99;100919.59;5031045;28;20205;-72
2023/05/05 03:22:35;;;;;;;7.47;6.30;;;;;;;8.56;74.38;100912.56;5033208;28;20691;-71
2023/05/05 03:25:02;;;;;;;8.23;6.27;;;;;;;8.54;74.21;100919.75;5032243;28;20228;-72
2023/05/05 03:27:28;;;;;;;7.20;6.17;;;;;;;8.52;74.36;100918.97;5031454;28;20770;-71
2023/05/05 03:29:56;;;;;;;7.00;5.97;;;;;;;8.51;74.97;100922.56;5031270;28;20234;-72
2023/05/05 03:32:23;;;;;;;7.67;6.67;;;;;;;8.50;74.49;100919.97;5030111;28;20599;-71
2023/05/05 03:34:50;;;;;;;7.70;5.90;;;;;;;8.48;74.47;100917.41;5032842;28;20214;-71
2023/05/05 03:37:16;;;;;;;7.97;6.20;;;;;;;8.46;75.15;100924.56;5038799;28;20225;-72
2023/05/05 03:39:43;;;;;;;6.57;5.63;;;;;;;8.45;75.28;100932.63;5030530;28;20206;-72
2023/05/05 03:42:09;;;;;;;7.53;6.10;;;;;;;8.44;75.45;100920.28;5043084;28;20571;-71
2023/05/05 03:44:35;;;;;;;7.10;6.40;;;;;;;8.44;75.49;100920.28;5035622;28;20225;-71
2023/05/05 03:47:03;;;;;;;7.07;6.10;;;;;;;8.44;75.13;100909.66;5041692;28;20233;-71
2023/05/05 03:49:30;;;;;;;7.17;6.00;;;;;;;8.42;75.57;100907.06;5034579;28;20230;-72
2023/05/05 03:51:56;;;;;;;11.13;5.97;;;;;;;8.42;75.03;100914.22;5036903;28;20213;-72
2023/05/05 03:54:23;;;;;;;7.70;5.90;;;;;;;8.41;75.31;100905.41;5019041;28;20206;-71
2023/05/05 03:56:49;;;;;;;8.03;6.17;;;;;;;8.39;75.59;100904.59;5040137;28;20232;-72
2023/05/05 03:59:16;;;;;;;7.87;6.87;;;;;;;8.38;75.30;100915.31;5040610;28;20427;-72
2023/05/05 04:01:43;;;;;;;9.13;6.80;;;;;;;8.36;75.69;100915.38;5027787;28;20254;-68
2023/05/05 04:04:11;;;;;;;9.30;6.33;;;;;;;8.33;75.84;100913.72;5031457;28;20205;-73
2023/05/05 04:06:38;;;;;;;9.93;6.03;;;;;;;8.33;75.99;100916.38;5034497;28;20222;-71
2023/05/05 04:09:04;;;;;;;8.40;6.13;;;;;;;8.32;76.05;100916.44;5035866;28;20201;-71
2023/05/05 04:11:31;;;;;;;6.57;5.90;;;;;;;8.30;76.48;100918.28;5032796;28;20255;-72
2023/05/05 04:13:57;;;;;;;10.23;6.90;;;;;;;8.30;75.45;100921.81;5022402;28;20218;-72
2023/05/05 04:16:23;;;;;;;8.90;6.17;;;;;;;8.29;75.55;100917.44;5031227;28;20227;-71
2023/05/05 04:18:50;;;;;;;9.47;6.53;;;;;;;8.27;76.05;100906.03;5033469;28;20202;-71
2023/05/05 04:21:18;;;;;;;7.67;5.60;;;;;;;8.24;75.41;100906.16;5041420;28;20207;-71
2023/05/05 04:23:44;;;;;;;7.93;6.70;;;;;;;8.19;75.45;100910.88;5037397;28;20217;-71
2023/05/05 04:26:10;;;;;;;10.10;7.03;;;;;;;8.14;76.07;100912.88;5038669;28;20244;-71
2023/05/05 04:28:37;;;;;;;9.33;6.03;;;;;;;8.11;76.27;100923.63;5040127;28;20669;-72
2023/05/05 04:31:04;;;;;;;8.70;6.63;;;;;;;8.07;76.60;100927.38;5034413;28;20226;-72
2023/05/05 04:33:31;;;;;;;7.47;6.60;;;;;;;8.05;76.98;100931.91;5027768;28;20576;-71
2023/05/05 04:35:58;;;;;;;7.27;6.50;;;;;;;8.04;76.69;100932.84;5032546;28;20226;-71
2023/05/05 04:38:26;;;;;;;9.40;6.77;;;;;;;8.04;77.05;100927.53;5035785;28;20582;-71
2023/05/05 04:40:52;;;;;;;12.50;6.77;;;;;;;8.05;77.53;100923.09;5042679;28;20726;-71
2023/05/05 04:43:19;;;;;;;7.90;6.33;;;;;;;8.06;77.28;100920.34;5024470;28;20214;-71
2023/05/05 04:45:52;;;;;;;8.23;6.10;;;;;;;8.05;77.38;100918.66;5058664;22;20300;-70
2023/05/05 04:48:19;;;;;;;11.50;6.97;;;;;;;8.05;76.93;100917.78;5001207;28;20207;-68
2023/05/05 04:50:46;;;;;;;8.67;6.90;;;;;;;8.04;77.55;100927.53;5001589;28;20219;-70
2023/05/05 04:53:12;;;;;;;11.90;7.00;;;;;;;8.07;77.37;100931.81;4993225;28;20208;-70
2023/05/05 04:55:40;;;;;;;6.60;6.00;;;;;;;8.11;78.03;100926.28;4988724;28;20222;-71
2023/05/05 04:58:06;;;;;;;10.27;6.90;;;;;;;8.15;78.36;100934.97;4991126;28;20211;-70
2023/05/05 05:00:33;;;;;;;10.70;6.97;;;;;;;8.20;78.42;100947.09;4985288;28;20206;-71
2023/05/05 05:02:59;;;;;;;7.50;6.50;;;;;;;8.28;79.09;100930.78;4992526;28;20212;-69
2023/05/05 05:05:26;;;;;;;10.67;6.60;;;;;;;8.35;79.24;100927.78;4990023;28;20226;-70
2023/05/05 05:07:52;;;;;;;8.70;7.10;;;;;;;8.44;80.03;100934.41;4989372;28;20226;-70
2023/05/05 05:10:18;;;;;;;8.10;6.53;;;;;;;8.57;80.59;100929.38;4983527;28;20731;-69
2023/05/05 05:12:48;;;;;;;8.30;6.93;;;;;;;8.67;80.84;100927.94;4987753;28;20792;-70
2023/05/05 05:15:15;;;;;;;8.70;6.73;;;;;;;8.77;80.75;100926.56;4986844;28;20211;-69
2023/05/05 05:17:41;;;;;;;7.93;6.67;;;;;;;8.88;80.68;100932.16;4987283;28;20260;-68
2023/05/05 05:20:08;;;;;;;8.87;6.53;;;;;;;8.98;80.58;100929.88;4984967;28;20206;-69
2023/05/05 05:22:37;;;;;;;8.60;6.67;;;;;;;9.07;80.73;100925.88;4987974;28;20716;-68
2023/05/05 05:25:03;;;;;;;9.77;6.70;;;;;;;9.17;80.34;100935.06;4996990;28;20207;-70
2023/05/05 05:27:30;;;;;;;8.50;6.77;;;;;;;9.25;80.78;100924.91;4988581;28;20230;-71
2023/05/05 05:29:58;;;;;;;8.97;6.53;;;;;;;9.31;79.71;100922.78;4992566;28;20216;-71
2023/05/05 05:32:24;;;;;;;10.80;6.90;;;;;;;9.34;79.62;100919.09;4997256;28;20206;-72
2023/05/05 05:34:51;;;;;;;9.37;6.60;;;;;;;9.37;78.95;100918.94;4996851;28;20215;-75
2023/05/05 05:37:17;;;;;;;9.00;6.07;;;;;;;9.40;78.68;100916.09;4993491;28;20233;-73
2023/05/05 05:39:43;;;;;;;9.00;6.60;;;;;;;9.46;78.86;100917.59;4994479;28;20203;-73
2023/05/05 05:42:10;;;;;;;8.07;6.10;;;;;;;9.51;78.53;100916.38;5000336;28;20202;-72
2023/05/05 05:44:36;;;;;;;9.43;6.47;;;;;;;9.60;77.97;100925.66;4995719;28;20210;-72
2023/05/05 05:47:04;;;;;;;6.83;6.13;;;;;;;9.70;78.56;100925.06;4999198;28;20234;-72
2023/05/05 05:49:31;;;;;;;9.03;6.43;;;;;;;9.83;78.12;100929.72;4983995;28;20211;-72
2023/05/05 05:51:57;;;;;;;8.27;6.50;;;;;;;9.97;78.36;100933.31;4981460;28;20231;-71
2023/05/05 05:54:23;;;;;;;8.13;6.07;;;;;;;10.10;78.16;100930.81;4984546;28;20201;-71
2023/05/05 05:56:50;;;;;;;9.37;6.80;;;;;;;10.24;77.55;100932.72;4995997;28;20238;-72
2023/05/05 05:59:17;;;;;;;7.70;6.73;;;;;;;10.39;77.50;100932.69;4988986;28;20215;-71
2023/05/05 06:01:43;;;;;;;9.50;7.03;;;;;;;10.54;77.12;100927.44;4986622;28;20202;-69
2023/05/05 06:04:12;;;;;;;7.30;6.60;;;;;;;10.70;76.97;100920.25;4986266;28;20208;-73
2023/05/05 06:06:38;;;;;;;8.43;6.63;;;;;;;10.90;76.98;100919.06;4993859;28;20218;-73
2023/05/05 06:09:08;;;;;;;7.43;6.40;;;;;;;11.12;76.88;100922.09;4990673;28;20222;-74
2023/05/05 06:11:35;;;;;;;8.10;6.50;;;;;;;11.30;75.80;100915.63;4993368;28;20744;-72
2023/05/05 06:14:02;;;;;;;7.63;6.80;;;;;;;11.48;74.75;100913.63;4995866;28;20211;-71
2023/05/05 06:16:28;;;;;;;8.17;6.10;;;;;;;11.65;74.03;100926.75;4997180;28;20721;-73
2023/05/05 06:18:55;;;;;;;8.37;6.80;;;;;;;11.77;72.33;100942.03;4991584;28;20624;-74
2023/05/05 06:21:23;;;;;;;9.60;5.93;;;;;;;11.83;70.30;100935.44;4987717;28;20206;-71
2023/05/05 06:23:49;;;;;;;7.33;6.30;;;;;;;11.82;69.46;100929.25;4988682;28;20207;-73
2023/05/05 06:26:16;;;;;;;7.93;5.90;;;;;;;11.82;69.01;100934.59;4995767;28;20224;-72
2023/05/05 06:28:42;;;;;;;9.13;6.37;;;;;;;11.85;68.70;100933.53;4992212;28;20199;-69
2023/05/05 06:31:09;;;;;;;6.00;5.40;;;;;;;11.83;68.03;100928.28;4993919;28;20227;-72
2023/05/05 06:33:35;;;;;;;6.87;5.20;;;;;;;11.85;67.76;100932.69;4991124;28;20200;-73
2023/05/05 06:36:01;;;;;;;6.70;5.57;;;;;;;11.85;67.45;100932.69;4992009;28;22103;-72
2023/05/05 06:38:29;;;;;;;8.97;6.03;;;;;;;11.86;67.26;100931.72;4993417;28;20230;-73
2023/05/05 06:40:57;;;;;;;9.57;6.57;;;;;;;11.87;67.59;100922.75;5001624;28;20226;-72
2023/05/05 06:43:23;;;;;;;8.97;5.70;;;;;;;11.91;67.14;100926.94;4993556;28;20246;-72
2023/05/05 06:45:50;;;;;;;7.57;5.90;;;;;;;11.95;67.65;100926.66;4998045;28;20325;-71
2023/05/05 06:48:16;;;;;;;10.37;6.00;;;;;;;11.97;67.21;100921.22;4988565;28;20203;-75
2023/05/05 06:50:43;;;;;;;7.70;5.70;;;;;;;11.99;67.20;100909.50;4996222;28;20237;-71
2023/05/05 06:53:09;;;;;;;7.60;5.73;;;;;;;12.02;66.99;100913.75;4995269;28;20199;-73
2023/05/05 06:55:37;;;;;;;7.70;6.27;;;;;;;12.05;66.82;100913.56;4986838;28;20254;-71
2023/05/05 06:58:04;;;;;;;8.37;6.17;;;;;;;12.09;67.28;100912.41;4990626;28;20206;-72
2023/05/05 07:00:30;;;;;;;10.87;6.13;;;;;;;12.14;67.32;100916.50;4992273;28;20207;-73
2023/05/05 07:02:56;;;;;;;6.37;5.53;;;;;;;12.20;67.81;100917.91;4995729;28;20211;-73
2023/05/05 07:05:23;;;;;;;8.77;5.50;;;;;;;12.24;67.01;100929.25;4989044;28;20218;-72
2023/05/05 07:07:51;;;;;;;7.43;5.13;;;;;;;12.26;66.40;100930.84;4992938;28;20227;-72
2023/05/05 07:10:17;;;;;;;8.50;5.80;;;;;;;12.30;66.73;100929.69;4986415;28;20647;-71
2023/05/05 07:12:45;;;;;;;8.33;4.93;;;;;;;12.41;67.15;100932.50;4992424;28;20295;-71
2023/05/05 07:15:12;;;;;;;10.90;6.10;;;;;;;12.57;67.48;100931.47;4994733;28;20254;-75
2023/05/05 07:17:39;;;;;;;8.27;6.30;;;;;;;12.71;67.30;100924.28;4986037;28;20223;-72
2023/05/05 07:20:06;;;;;;;7.97;5.73;;;;;;;12.85;66.23;100917.97;4992339;28;20214;-73
2023/05/05 07:22:33;;;;;;;8.00;5.63;;;;;;;12.99;66.23;100920.56;4994461;28;20199;-71
2023/05/05 07:24:59;;;;;;;8.07;5.97;;;;;;;13.14;66.30;100915.94;4991626;28;20215;-72
2023/05/05 07:27:26;;;;;;;7.03;5.30;;;;;;;13.27;65.10;100916.81;4990996;28;20310;-73
2023/05/05 07:29:54;;;;;;;7.57;6.17;;;;;;;13.43;64.57;100919.31;4985916;28;20215;-73
2023/05/05 07:32:20;;;;;;;8.57;5.97;;;;;;;13.61;64.07;100912.63;4985891;28;20231;-73
2023/05/05 07:34:47;;;;;;;7.73;5.07;;;;;;;13.82;64.27;100920.91;4987012;28;20210;-72
2023/05/05 07:37:13;;;;;;;8.77;5.77;;;;;;;14.06;63.39;100923.63;4982951;28;20234;-73
2023/05/05 07:39:40;;;;;;;7.20;5.37;;;;;;;14.26;62.78;100928.38;4986970;28;20223;-73
2023/05/05 07:42:06;;;;;;;6.97;6.10;;;;;;;14.44;61.69;100916.31;4984160;28;20208;-72
2023/05/05 07:44:33;;;;;;;6.77;5.60;;;;;;;14.64;61.67;100908.59;4988563;28;20212;-73
2023/05/05 07:47:00;;;;;;;8.30;5.50;;;;;;;14.83;61.12;100903.53;4990175;28;20255;-72
2023/05/05 07:49:27;;;;;;;7.30;6.13;;;;;;;15.00;60.84;100902.22;4989438;28;20204;-71
2023/05/05 07:51:54;;;;;;;8.63;5.90;;;;;;;15.14;60.27;100894.81;4981635;28;20277;-73
2023/05/05 07:54:20;;;;;;;6.00;4.93;;;;;;;15.25;59.13;100904.69;4986301;28;20237;-73
2023/05/05 07:56:47;;;;;;;6.83;5.40;;;;;;;15.31;58.60;100906.03;4980692;28;20260;-73
2023/05/05 07:59:13;;;;;;;6.43;5.40;;;;;;;15.38;58.71;100918.00;4985541;28;20215;-71
2023/05/05 08:01:40;;;;;;;6.53;6.03;;;;;;;15.45;58.37;100921.91;4985222;28;20212;-72
2023/05/05 08:04:08;;;;;;;7.77;5.73;;;;;;;15.57;58.52;100919.16;4985768;28;20206;-73
2023/05/05 08:06:34;;;;;;;6.33;5.20;;;;;;;15.76;58.54;100912.31;4985833;28;20233;-73
2023/05/05 08:09:02;;;;;;;7.30;5.80;;;;;;;15.90;57.47;100917.41;4986373;28;20219;-73
2023/05/05 08:11:30;;;;;;;7.93;5.93;;;;;;;15.97;56.46;100913.22;4989408;28;20223;-73
2023/05/05 08:13:56;;;;;;;6.40;5.33;;;;;;;16.01;55.79;100917.38;4980459;28;20215;-73
2023/05/05 08:16:23;;;;;;;6.57;5.10;;;;;;;16.06;56.13;100925.91;4979817;28;20230;-71
2023/05/05 08:18:49;;;;;;;8.97;5.70;;;;;;;16.15;56.07;100932.34;4982903;28;20258;-74
2023/05/05 08:21:17;;;;;;;7.27;5.57;;;;;;;16.23;55.61;100937.97;4987104;28;20206;-72
2023/05/05 08:23:43;;;;;;;5.50;4.67;;;;;;;16.29;55.14;100935.63;4996983;28;20209;-74
2023/05/05 08:26:10;;;;;;;6.40;4.97;;;;;;;16.38;55.79;100928.63;4993194;28;20628;-73
2023/05/05 08:28:36;;;;;;;8.57;5.37;;;;;;;16.45;55.90;100932.53;4995337;28;20208;-73
2023/05/05 08:31:04;;;;;;;5.60;4.77;;;;;;;16.49;55.29;100927.72;4987412;28;20240;-73
2023/05/05 08:33:30;;;;;;;6.07;5.47;;;;;;;16.53;55.06;100935.41;4997628;28;20207;-73
2023/05/05 08:35:57;;;;;;;10.60;5.87;;;;;;;16.57;54.73;100944.06;4994706;28;20243;-73
2023/05/05 08:38:25;;;;;;;8.10;5.70;;;;;;;16.61;54.83;100957.16;4999072;28;20210;-72
2023/05/05 08:40:52;;;;;;;6.60;5.87;;;;;;;16.66;54.32;100960.31;4994359;28;20214;-72
2023/05/05 08:43:21;;;;;;;6.57;5.50;;;;;;;16.71;54.16;100961.78;4984370;28;20563;-73
2023/05/05 08:46:02;;;;;;;7.10;5.53;;;;;;;16.72;53.75;100960.78;4983171;28;20763;-73
2023/05/05 08:48:32;;;;;;;6.93;5.77;;;;;;;16.74;53.57;100962.38;4996558;28;20291;-73
2023/05/05 08:51:00;;;;;;;8.53;6.23;;;;;;;16.73;53.68;100960.66;4983726;28;20204;-73
2023/05/05 08:53:41;;;;;;;9.03;6.03;;;;;;;16.74;53.88;100959.69;4980181;28;20600;-73
2023/05/05 08:56:08;;;;;;;11.20;6.07;;;;;;;16.79;54.16;100956.63;4986223;28;20273;-73
2023/05/05 08:58:36;;;;;;;7.30;6.37;;;;;;;16.81;54.22;100955.50;4988800;28;20207;-73
2023/05/05 09:01:03;;;;;;;9.27;6.30;;;;;;;16.84;54.06;100965.16;4981243;28;20212;-70
2023/05/05 09:03:32;;;;;;;7.43;6.53;;;;;;;16.88;54.28;100961.19;4991267;28;20201;-72
2023/05/05 09:05:58;;;;;;;8.50;7.03;;;;;;;16.90;54.08;100960.09;4988400;28;20231;-72
2023/05/05 09:08:26;;;;;;;12.47;6.80;;;;;;;16.95;54.16;100968.63;4984885;28;20212;-71
2023/05/05 09:10:54;;;;;;;7.83;6.93;;;;;;;17.01;54.00;100969.97;4993764;28;20215;-73
2023/05/05 09:13:21;;;;;;;9.20;5.90;;;;;;;17.08;54.36;100971.13;4990352;28;20215;-72
2023/05/05 09:15:48;;;;;;;13.27;7.17;;;;;;;17.15;54.74;100953.47;4987424;28;20223;-73
2023/05/05 09:18:14;;;;;;;9.53;6.63;;;;;;;17.20;54.85;100953.91;4985817;28;20231;-75
2023/05/05 09:20:41;;;;;;;10.93;6.33;;;;;;;17.24;55.27;100946.44;4979677;28;20211;-71
2023/05/05 09:23:09;;;;;;;10.33;7.10;;;;;;;17.26;54.86;100948.00;4987484;28;20197;-71
2023/05/05 09:25:36;;;;;;;9.93;7.07;;;;;;;17.25;55.21;100942.75;4981695;28;20209;-71
2023/05/05 09:28:10;;;;;;;13.47;7.53;;;;;;;17.21;55.48;100947.53;4986364;28;20215;-73
2023/05/05 09:30:37;;;;;;;8.83;6.70;;;;;;;17.20;55.97;100943.16;4986717;28;20201;-73
2023/05/05 09:33:04;;;;;;;9.27;6.13;;;;;;;17.22;56.20;100935.78;4984896;28;20235;-73
2023/05/05 09:35:49;;;;;;;10.80;6.80;;;;;;;17.22;56.17;100933.09;4988121;28;20207;-72
2023/05/05 09:38:16;;;;;;;8.20;6.40;;;;;;;17.20;55.90;100934.22;4984871;28;20209;-72
2023/05/05 09:40:47;;;;;;;10.33;6.23;;;;;;;17.16;55.82;100922.88;4987593;28;20692;-72
2023/05/05 09:43:16;;;;;;;11.73;6.90;;;;;;;17.14;56.04;100918.63;4988137;28;20286;-73
2023/05/05 09:45:43;;;;;;;9.63;7.17;;;;;;;17.12;56.50;100923.28;4981051;28;20214;-72
2023/05/05 09:48:24;;;;;;;9.00;7.23;;;;;;;17.11;57.09;100935.88;4987932;28;20226;-72
2023/05/05 09:50:51;;;;;;;9.97;7.73;;;;;;;17.13;57.45;100951.91;4983599;28;20240;-72
2023/05/05 09:53:17;;;;;;;13.03;9.07;;;;;;;17.10;57.36;100947.63;4986216;28;20220;-71
2023/05/05 09:55:52;;;;;;;13.03;9.50;;;;;;;17.10;58.04;100955.69;4989359;28;20212;-72
2023/05/05 09:58:22;;;;;;;13.13;11.30;;;;;;;17.08;59.12;100940.66;4985509;28;20210;-72
2023/05/05 10:00:49;;;;;;;18.13;11.73;;;;;;;17.07;60.00;100934.44;4981884;28;20213;-72
2023/05/05 10:03:16;;;;;;;15.53;11.37;;;;;;;17.05;60.50;100933.72;4991041;28;20215;-71
2023/05/05 10:05:50;;;;;;;17.47;11.90;;;;;;;17.06;60.99;100927.34;4985592;28;20207;-69
2023/05/05 10:08:17;;;;;;;15.77;11.63;;;;;;;17.09;61.03;100919.00;4993226;28;20204;-73
2023/05/05 10:10:49;;;;;;;14.00;10.70;;;;;;;17.10;61.44;100917.16;4987327;28;20296;-72
2023/05/05 10:13:18;;;;;;;12.27;10.57;;;;;;;17.11;60.88;100919.72;4979855;28;20631;-72
2023/05/05 10:15:50;;;;;;;21.73;11.77;;;;;;;17.13;60.97;100933.06;4979528;28;20204;-72
2023/05/05 10:18:20;;;;;;;15.67;11.13;;;;;;;17.15;60.89;100936.47;4983136;28;20232;-72
2023/05/05 10:20:51;;;;;;;16.30;10.50;;;;;;;17.17;60.45;100935.38;4987541;28;20257;-72
2023/05/05 10:23:20;;;;;;;15.97;10.50;;;;;;;17.18;61.06;100920.91;4986039;28;20278;-70
2023/05/05 10:25:53;;;;;;;14.30;10.77;;;;;;;17.20;61.19;100932.38;4984569;28;20233;-72
2023/05/05 10:28:37;;;;;;;15.23;9.17;;;;;;;17.23;60.92;100948.28;4977875;28;20218;-74
2023/05/05 10:31:13;;;;;;;12.13;9.73;;;;;;;17.22;60.67;100970.78;4978815;28;20216;-72
2023/05/05 10:33:48;;;;;;;13.40;10.10;;;;;;;17.23;60.09;100969.81;4982878;28;20306;-70
2023/05/05 10:36:16;;;;;;;14.77;8.63;;;;;;;17.28;60.47;100961.34;4983218;28;20709;-73
2023/05/05 10:38:43;;;;;;;13.80;9.73;;;;;;;17.35;60.37;100963.38;4983042;28;20211;-73
2023/05/05 10:41:11;;;;;;;13.77;9.43;;;;;;;17.39;59.78;100963.94;4987843;28;20224;-74
2023/05/05 10:43:38;;;;;;;12.10;8.40;;;;;;;17.41;59.42;100967.34;4983885;28;20612;-71
2023/05/05 10:46:06;;;;;;;10.53;8.03;;;;;;;17.44;59.30;100968.94;4984976;28;20240;-70
2023/05/05 10:48:37;;;;;;;9.43;7.80;;;;;;;17.46;58.80;100969.66;4987682;28;20209;-72
2023/05/05 10:51:21;;;;;;;11.00;8.63;;;;;;;17.49;58.69;100977.47;4982587;28;20213;-71
2023/05/05 10:53:58;;;;;;;12.27;8.23;;;;;;;17.51;59.03;100970.13;4984652;28;20315;-70
2023/05/05 10:56:31;;;;;;;11.17;8.50;;;;;;;17.53;59.25;100966.31;4984346;28;20288;-71
2023/05/05 10:58:58;;;;;;;12.87;9.23;;;;;;;17.54;59.62;100954.56;4984588;28;20291;-71
2023/05/05 11:01:31;;;;;;;9.23;8.20;;;;;;;17.52;59.87;100953.84;4991980;28;20211;-71
2023/05/05 11:04:17;;;;;;;12.33;8.30;;;;;;;17.50;60.22;100954.94;4976382;28;20691;-71
2023/05/05 11:07:21;;;;;;;10.97;7.87;;;;;;;17.43;60.31;100951.06;4974485;28;20329;-72
2023/05/05 11:09:56;;;;;;;9.87;7.37;;;;;;;17.38;60.26;100950.66;4974722;28;20201;-70
2023/05/05 11:12:22;;;;;;;8.80;7.90;;;;;;;17.32;60.89;100947.50;4979712;28;20223;-73
2023/05/05 11:15:36;;;;;;;8.60;7.70;;;;;;;17.29;61.36;100936.97;4981740;28;20240;-71
2023/05/05 11:18:05;;;;;;;10.60;7.90;;;;;;;17.22;61.68;100933.09;4988122;28;20714;-72
2023/05/05 11:21:01;;;;;;;8.37;7.33;;;;;;;17.17;62.22;100927.28;4987703;28;20556;-71
2023/05/05 11:23:28;;;;;;;11.30;7.90;;;;;;;17.16;63.46;100925.59;4992508;28;20234;-72
2023/05/05 11:25:56;;;;;;;10.90;8.40;;;;;;;17.14;64.23;100929.38;4977190;28;20326;-72
2023/05/05 11:28:24;;;;;;;10.37;9.27;;;;;;;17.11;65.08;100935.88;4978164;28;20208;-71
2023/05/05 11:31:16;;;;;;;10.27;9.10;;;;;;;17.09;65.08;100932.47;4981546;28;20214;-69
2023/05/05 11:33:44;;;;;;;14.53;9.63;;;;;;;17.11;66.47;100948.47;4985252;28;20227;-71
2023/05/05 11:36:12;;;;;;;12.93;9.07;;;;;;;17.13;66.91;100944.69;4993315;28;20216;-71